createdAt,value
2018-05-23T00:01:07.517Z,2.37
2018-05-23T00:06:10.260Z,2.90
2018-05-23T00:11:13.273Z,2.90
2018-05-23T00:16:15.916Z,2.73
2018-05-23T00:21:19.054Z,3.30
2018-05-23T00:26:22.092Z,2.83
2018-05-23T00:31:25.090Z,2.70
2018-05-23T00:36:27.745Z,3.47
2018-05-23T00:41:30.844Z,3.03
2018-05-23T00:46:33.849Z,3.00
2018-05-23T00:51:37.420Z,3.07
2018-05-23T00:56:40.320Z,2.93
2018-05-23T01:07:44.029Z,3.10
2018-05-23T01:12:47.461Z,2.80
2018-05-23T01:17:50.354Z,3.23
2018-05-23T01:22:53.029Z,2.97
2018-05-23T01:27:56.429Z,3.07
2018-05-23T01:33:00.111Z,3.20
2018-05-23T01:38:02.921Z,3.23
2018-05-23T01:43:06.545Z,3.50
2018-05-23T01:48:09.473Z,3.40
2018-05-23T01:53:12.968Z,3.43
2018-05-23T01:58:17.227Z,4.00
2018-05-23T02:03:19.835Z,3.00
2018-05-23T02:08:23.093Z,3.37
2018-05-23T02:13:26.410Z,3.50
2018-05-23T02:18:30.813Z,2.60
2018-05-23T02:23:33.522Z,4.00
2018-05-23T02:28:36.423Z,3.30
2018-05-23T02:33:39.320Z,3.00
2018-05-23T02:38:43.238Z,3.23
2018-05-23T02:43:46.164Z,3.20
2018-05-23T02:48:48.989Z,3.47
2018-05-23T02:53:52.318Z,2.60
2018-05-23T02:58:55.170Z,4.07
2018-05-23T03:03:58.548Z,3.60
2018-05-23T03:09:01.436Z,3.57
2018-05-23T03:14:04.285Z,3.50
2018-05-23T03:19:07.409Z,5.77
2018-05-23T03:24:10.442Z,3.63
2018-05-23T03:29:13.265Z,4.50
2018-05-23T03:34:16.227Z,4.60
2018-05-23T03:39:19.497Z,4.50
2018-05-23T03:44:23.704Z,4.37
2018-05-23T03:49:26.448Z,3.80
2018-05-23T03:54:29.517Z,3.87
2018-05-23T03:59:47.952Z,3.90
2018-05-23T04:05:02.957Z,4.13
2018-05-23T04:10:06.258Z,3.27
2018-05-23T04:15:09.556Z,3.20
2018-05-23T04:20:12.876Z,3.90
2018-05-23T04:25:15.739Z,4.10
2018-05-23T04:30:18.604Z,4.57
2018-05-23T04:35:21.428Z,3.90
2018-05-23T04:40:24.365Z,3.73
2018-05-23T04:45:27.046Z,4.30
2018-05-23T04:50:29.754Z,4.10
2018-05-23T04:55:34.243Z,4.33
2018-05-23T05:00:37.410Z,4.70
2018-05-23T05:05:40.647Z,5.10
2018-05-23T05:10:48.755Z,4.37
2018-05-23T05:15:54.239Z,4.83
2018-05-23T05:21:00.008Z,4.40
2018-05-23T05:26:06.321Z,4.97
2018-05-23T05:31:16.450Z,4.87
2018-05-23T05:36:22.151Z,6.10
2018-05-23T05:46:36.631Z,4.03
2018-05-23T05:51:44.289Z,4.77
2018-05-23T05:56:48.708Z,4.83
2018-05-23T06:01:54.336Z,4.47
2018-05-23T06:06:57.519Z,4.80
2018-05-23T06:12:02.239Z,5.20
2018-05-23T06:17:06.319Z,4.70
2018-05-23T06:22:20.629Z,4.13
2018-05-23T06:27:25.474Z,5.53
2018-05-23T06:32:33.860Z,5.83
2018-05-23T06:37:54.500Z,4.60
2018-05-23T06:43:00.165Z,5.17
2018-05-23T06:48:05.439Z,5.33
2018-05-23T06:53:14.281Z,4.67
2018-05-23T07:03:29.799Z,4.97
2018-05-23T07:08:40.897Z,4.40
2018-05-23T07:13:45.728Z,5.17
2018-05-23T07:18:57.065Z,4.17
2018-05-23T07:29:14.029Z,4.40
2018-05-23T07:39:32.952Z,4.63
2018-05-23T07:44:38.598Z,4.60
2018-05-23T07:49:46.214Z,4.83
2018-05-23T07:54:48.743Z,4.30
2018-05-23T07:59:51.270Z,4.20
2018-05-23T08:04:53.806Z,4.10
2018-05-23T08:09:56.327Z,4.70
2018-05-23T08:14:58.853Z,3.77
2018-05-23T08:20:01.378Z,3.90
2018-05-23T08:25:03.923Z,4.30
2018-05-23T08:30:06.437Z,3.40
2018-05-23T08:35:08.956Z,4.60
2018-05-23T08:40:11.498Z,4.07
2018-05-23T08:45:14.857Z,5.07
2018-05-23T08:50:17.318Z,4.40
2018-05-23T08:55:19.850Z,4.50
2018-05-23T09:00:22.364Z,4.10
2018-05-23T09:05:24.890Z,4.03
2018-05-23T09:15:43.492Z,4.57
2018-05-23T09:25:59.093Z,4.67
2018-05-23T09:31:10.009Z,4.30
2018-05-23T09:36:13.692Z,3.20
2018-05-23T09:46:39.959Z,3.20
2018-05-23T09:56:52.575Z,3.30
2018-05-23T10:17:31.322Z,3.80
2018-05-23T10:27:51.164Z,3.20
2018-05-23T10:38:10.143Z,3.47
2018-05-23T10:43:12.684Z,3.33
2018-05-23T10:48:29.278Z,3.40
2018-05-23T10:53:44.874Z,3.83
2018-05-23T10:58:53.281Z,2.70
2018-05-23T11:03:59.638Z,3.57
2018-05-23T11:09:06.587Z,3.63
2018-05-23T11:24:34.353Z,3.30
2018-05-23T11:29:40.236Z,2.60
2018-05-23T11:34:47.735Z,2.50
2018-05-23T11:39:51.784Z,3.30
2018-05-23T11:45:02.037Z,2.33
2018-05-23T11:50:07.461Z,3.20
2018-05-23T11:55:20.595Z,3.20
2018-05-23T12:00:29.398Z,3.40
2018-05-23T12:05:31.931Z,2.40
2018-05-23T12:10:35.340Z,2.07
2018-05-23T12:15:37.795Z,2.17
2018-05-23T12:20:40.329Z,2.30
2018-05-23T12:25:45.604Z,1.90
2018-05-23T12:36:02.356Z,1.50
2018-05-23T12:41:07.390Z,2.40
2018-05-23T12:46:13.508Z,2.90
2018-05-23T12:51:17.787Z,2.57
2018-05-23T12:56:23.802Z,2.27
2018-05-23T13:06:38.113Z,2.87
2018-05-23T13:11:43.880Z,2.57
2018-05-23T13:16:47.578Z,2.60
2018-05-23T13:21:50.929Z,2.17
2018-05-23T13:26:56.405Z,2.67
2018-05-23T13:32:00.385Z,3.30
2018-05-23T13:37:05.718Z,2.77
2018-05-23T13:42:10.980Z,2.90
2018-05-23T13:47:15.948Z,2.50
2018-05-23T13:52:21.133Z,2.23
2018-05-23T13:57:27.494Z,2.40
2018-05-23T14:02:36.728Z,2.97
2018-05-23T14:07:43.939Z,2.60
2018-05-23T14:17:59.821Z,2.77
2018-05-23T14:23:08.609Z,3.10
2018-05-23T14:28:13.960Z,2.60
2018-05-23T14:33:18.536Z,2.30
2018-05-23T14:38:22.048Z,2.60
2018-05-23T14:43:24.621Z,2.43
2018-05-23T14:48:27.528Z,2.43
2018-05-23T14:53:32.588Z,2.40
2018-05-23T14:58:37.460Z,3.43
2018-05-23T15:03:41.085Z,4.17
2018-05-23T15:08:45.721Z,3.33
2018-05-23T15:13:50.941Z,4.17
2018-05-23T15:18:54.908Z,4.30
2018-05-23T15:23:59.677Z,5.27
2018-05-23T15:29:05.853Z,3.70
2018-05-23T15:34:08.954Z,3.77
2018-05-23T15:39:13.001Z,3.67
2018-05-23T15:44:17.360Z,3.50
2018-05-23T15:49:24.427Z,3.80
2018-05-23T15:54:28.005Z,3.60
2018-05-23T15:59:36.310Z,3.70
2018-05-23T16:04:41.175Z,3.40
2018-05-23T16:09:45.208Z,3.10
2018-05-23T16:14:50.244Z,2.83
2018-05-23T16:19:55.021Z,3.17
2018-05-23T16:24:59.331Z,2.97
2018-05-23T16:30:06.247Z,3.27
2018-05-23T16:35:11.236Z,3.07
2018-05-23T16:40:16.551Z,3.30
2018-05-23T16:45:24.846Z,3.17
2018-05-23T16:50:27.532Z,2.77
2018-05-23T16:55:30.170Z,2.87
2018-05-23T17:00:33.077Z,2.97
2018-05-23T17:05:36.373Z,3.40
2018-05-23T17:10:39.003Z,3.77
2018-05-23T17:15:41.633Z,3.00
2018-05-23T17:20:44.328Z,3.47
2018-05-23T17:25:47.223Z,3.10
2018-05-23T17:30:49.885Z,3.83
2018-05-23T17:35:53.311Z,2.70
2018-05-23T17:40:56.592Z,3.13
2018-05-23T17:45:59.105Z,2.73
2018-05-23T17:51:01.648Z,3.10
2018-05-23T17:56:04.165Z,3.23
2018-05-23T18:01:06.751Z,3.23
2018-05-23T18:06:09.371Z,3.60
2018-05-23T18:11:11.934Z,3.80
2018-05-23T18:16:14.383Z,4.70
2018-05-23T18:21:16.949Z,3.90
2018-05-23T18:26:19.464Z,4.67
2018-05-23T18:31:22.037Z,3.83
2018-05-23T18:36:24.579Z,4.30
2018-05-23T18:41:27.201Z,3.80
2018-05-23T18:46:29.740Z,4.03
2018-05-23T18:51:32.661Z,4.63
2018-05-23T18:56:35.760Z,4.00
2018-05-23T19:01:38.769Z,3.90
2018-05-23T19:06:41.773Z,4.67
2018-05-23T19:11:44.380Z,4.73
2018-05-23T19:16:47.701Z,3.73
2018-05-23T19:21:50.225Z,3.10
2018-05-23T19:26:52.844Z,3.90
2018-05-23T19:31:55.599Z,4.30
2018-05-23T19:36:58.257Z,4.57
2018-05-23T19:42:08.222Z,3.50
2018-05-23T19:47:11.583Z,3.67
2018-05-23T19:52:14.141Z,3.80
2018-05-23T19:57:16.770Z,5.07
2018-05-23T20:02:19.392Z,4.10
2018-05-23T20:07:22.005Z,4.07
2018-05-23T20:12:24.613Z,5.27
2018-05-23T20:17:27.184Z,4.97
2018-05-23T20:22:29.761Z,5.57
2018-05-23T20:27:32.311Z,3.90
2018-05-23T20:32:34.904Z,5.37
2018-05-23T20:37:37.503Z,4.50
2018-05-23T20:42:40.144Z,4.70
2018-05-23T20:47:43.615Z,4.53
2018-05-23T20:52:46.209Z,4.27
2018-05-23T20:57:48.766Z,5.40
2018-05-23T21:02:52.290Z,4.60
2018-05-23T21:07:55.014Z,5.20
2018-05-23T21:12:58.172Z,5.27
2018-05-23T21:18:00.718Z,5.47
2018-05-23T21:23:03.881Z,4.33
2018-05-23T21:28:06.432Z,4.97
2018-05-23T21:33:08.992Z,5.33
2018-05-23T21:38:11.613Z,4.40
2018-05-23T21:43:15.052Z,5.50
2018-05-23T21:48:17.863Z,5.03
2018-05-23T21:53:20.461Z,6.80
2018-05-23T21:58:23.027Z,5.87
2018-05-23T22:03:25.579Z,5.60
2018-05-23T22:08:29.576Z,6.47
2018-05-23T22:13:32.916Z,6.53
2018-05-23T22:18:35.630Z,5.30
2018-05-23T22:23:39.093Z,5.63
2018-05-23T22:28:41.670Z,5.50
2018-05-23T22:33:44.233Z,5.40
2018-05-23T22:38:47.557Z,5.93
2018-05-23T22:43:50.233Z,6.20
2018-05-23T22:48:53.559Z,5.63
2018-05-23T22:53:56.234Z,5.70
2018-05-23T22:58:59.089Z,4.83
2018-05-23T23:04:01.720Z,6.10
2018-05-23T23:09:04.308Z,5.03
2018-05-23T23:14:06.884Z,5.30
2018-05-23T23:19:09.451Z,4.90
2018-05-23T23:24:12.071Z,4.67
2018-05-23T23:29:14.712Z,5.80
2018-05-23T23:34:17.964Z,5.63
2018-05-23T23:39:20.524Z,5.50
2018-05-23T23:44:23.119Z,6.20
2018-05-23T23:49:25.721Z,5.87
2018-05-23T23:54:29.089Z,5.73
2018-05-23T23:59:31.686Z,6.10
